createdAt,value
2022-11-05T00:04:40.247Z,14
2022-11-05T00:09:40.209Z,14
2022-11-05T00:14:40.366Z,14
2022-11-05T00:19:40.054Z,14
2022-11-05T00:24:40.053Z,15
2022-11-05T00:29:40.103Z,15
2022-11-05T00:34:40.306Z,15
2022-11-05T00:39:40.345Z,14
2022-11-05T00:44:40.127Z,14
2022-11-05T00:49:40.139Z,14
2022-11-05T00:54:40.282Z,14
2022-11-05T00:59:40.159Z,14
2022-11-05T01:04:39.958Z,14
2022-11-05T01:09:40.030Z,14
2022-11-05T01:14:40.092Z,14
2022-11-05T01:19:40.210Z,14
2022-11-05T01:24:40.204Z,14
2022-11-05T01:29:40.156Z,14
2022-11-05T01:34:39.953Z,14
2022-11-05T01:39:40.047Z,14
2022-11-05T01:44:40.216Z,14
2022-11-05T01:49:40.065Z,14
2022-11-05T01:54:39.989Z,14
2022-11-05T01:59:40.082Z,14
2022-11-05T02:04:43.290Z,14
2022-11-05T02:09:40.006Z,14
2022-11-05T02:14:40.182Z,14
2022-11-05T02:19:40.107Z,14
2022-11-05T02:24:40.033Z,14
2022-11-05T02:31:50.711Z,14
2022-11-05T02:34:40.139Z,13
2022-11-05T02:39:40.036Z,13
2022-11-05T02:46:33.125Z,13
2022-11-05T02:49:40.196Z,13
2022-11-05T02:54:42.259Z,13
2022-11-05T02:59:39.975Z,13
2022-11-05T03:04:40.191Z,14
2022-11-05T03:09:39.981Z,14
2022-11-05T03:14:39.954Z,14
2022-11-05T03:19:39.887Z,14
2022-11-05T03:24:41.605Z,14
2022-11-05T03:29:39.863Z,15
2022-11-05T03:34:40.058Z,15
2022-11-05T03:39:39.904Z,15
2022-11-05T03:44:42.270Z,15
2022-11-05T03:49:39.906Z,15
2022-11-05T03:54:39.822Z,15
2022-11-05T03:59:41.689Z,16
2022-11-05T04:04:40.005Z,16
2022-11-05T04:09:39.871Z,16
2022-11-05T04:14:40.218Z,16
2022-11-05T04:19:39.791Z,16
2022-11-05T04:24:39.884Z,16
2022-11-05T04:29:39.923Z,16
2022-11-05T04:34:40.251Z,16
2022-11-05T04:39:39.795Z,16
2022-11-05T04:44:40.158Z,16
2022-11-05T04:49:40.222Z,15
2022-11-05T04:54:39.992Z,15
2022-11-05T04:59:40.477Z,15
2022-11-05T05:04:39.836Z,14
2022-11-05T05:09:40.008Z,14
2022-11-05T05:14:40.108Z,14
2022-11-05T05:19:39.805Z,14
2022-11-05T05:24:39.696Z,14
2022-11-05T05:29:39.782Z,13
2022-11-05T05:34:39.871Z,14
2022-11-05T05:39:39.796Z,13
2022-11-05T05:44:39.997Z,13
2022-11-05T05:49:39.967Z,13
2022-11-05T05:54:42.715Z,13
2022-11-05T05:59:39.867Z,13
2022-11-05T06:04:39.646Z,13
2022-11-05T06:09:39.785Z,13
2022-11-05T06:14:39.782Z,13
2022-11-05T06:19:39.775Z,14
2022-11-05T06:24:39.849Z,14
2022-11-05T06:29:39.953Z,14
2022-11-05T06:34:39.798Z,14
2022-11-05T06:39:39.583Z,14
2022-11-05T06:44:39.824Z,15
2022-11-05T06:49:40.110Z,15
2022-11-05T06:54:39.829Z,16
2022-11-05T06:59:39.774Z,16
2022-11-05T07:04:39.587Z,17
2022-11-05T07:09:39.610Z,17
2022-11-05T07:14:39.744Z,18
2022-11-05T07:19:39.755Z,18
2022-11-05T07:24:39.666Z,19
2022-11-05T07:29:39.659Z,19
2022-11-05T07:34:40.109Z,20
2022-11-05T07:39:39.887Z,20
2022-11-05T07:44:39.805Z,21
2022-11-05T07:49:40.204Z,21
2022-11-05T07:54:39.625Z,22
2022-11-05T07:59:39.920Z,22
2022-11-05T08:04:39.834Z,23
2022-11-05T08:09:39.693Z,24
2022-11-05T08:14:39.730Z,24
2022-11-05T08:19:39.621Z,25
2022-11-05T08:24:39.652Z,25
2022-11-05T08:29:39.595Z,25
2022-11-05T08:34:39.682Z,26
2022-11-05T08:39:39.632Z,26
2022-11-05T08:44:39.697Z,26
2022-11-05T08:49:39.686Z,27
2022-11-05T08:54:39.653Z,26
2022-11-05T08:59:39.783Z,26
2022-11-05T09:04:39.641Z,26
2022-11-05T09:09:39.718Z,26
2022-11-05T09:14:39.485Z,26
2022-11-05T09:19:40.262Z,26
2022-11-05T09:24:39.745Z,26
2022-11-05T09:29:39.460Z,26
2022-11-05T09:34:39.440Z,25
2022-11-05T09:39:39.641Z,25
2022-11-05T09:44:39.537Z,25
2022-11-05T09:49:39.593Z,25
2022-11-05T09:54:39.642Z,24
2022-11-05T09:59:39.738Z,24
2022-11-05T10:04:42.188Z,24
2022-11-05T10:09:41.226Z,24
2022-11-05T10:14:39.398Z,23
2022-11-05T10:19:39.696Z,24
2022-11-05T10:24:39.579Z,23
2022-11-05T10:29:39.525Z,23
2022-11-05T10:34:39.412Z,23
2022-11-05T10:39:39.740Z,23
2022-11-05T10:44:39.661Z,23
2022-11-05T10:49:39.462Z,23
2022-11-05T10:54:39.630Z,22
2022-11-05T10:59:39.745Z,21
2022-11-05T11:04:39.519Z,21
2022-11-05T11:09:39.562Z,21
2022-11-05T11:14:39.351Z,20
2022-11-05T11:19:39.491Z,19
2022-11-05T11:24:39.642Z,19
2022-11-05T11:29:39.453Z,19
2022-11-05T11:34:39.581Z,19
2022-11-05T11:39:42.524Z,18
2022-11-05T11:44:39.369Z,18
2022-11-05T11:49:39.531Z,18
2022-11-05T11:54:39.657Z,17
2022-11-05T12:00:07.213Z,16
2022-11-05T12:04:39.569Z,16
2022-11-05T12:09:52.192Z,16
2022-11-05T12:14:45.139Z,16
2022-11-05T12:20:06.762Z,16
2022-11-05T12:24:39.540Z,15
2022-11-05T12:29:47.655Z,15
2022-11-05T12:34:39.429Z,15
2022-11-05T12:39:39.264Z,14
2022-11-05T12:44:46.558Z,14
2022-11-05T12:49:39.475Z,14
2022-11-05T12:54:44.569Z,14
2022-11-05T12:59:39.577Z,14
2022-11-05T13:04:39.287Z,14
2022-11-05T13:09:39.295Z,14
2022-11-05T13:14:39.261Z,14
2022-11-05T13:19:39.439Z,14
2022-11-05T13:24:39.234Z,14
2022-11-05T13:29:42.749Z,14
2022-11-05T13:34:39.409Z,14
2022-11-05T13:39:39.186Z,14
2022-11-05T13:44:39.198Z,14
2022-11-05T13:49:50.268Z,14
2022-11-05T13:54:39.307Z,14
2022-11-05T13:59:49.303Z,14
2022-11-05T14:04:41.002Z,14
2022-11-05T14:09:39.214Z,14
2022-11-05T14:14:39.183Z,14
2022-11-05T14:19:49.605Z,15
2022-11-05T14:24:40.271Z,15
2022-11-05T14:29:40.817Z,15
2022-11-05T14:34:41.308Z,15
2022-11-05T14:39:39.306Z,15
2022-11-05T14:44:39.106Z,15
2022-11-05T14:49:39.418Z,14
2022-11-05T14:54:39.114Z,14
2022-11-05T14:59:39.064Z,13
2022-11-05T15:04:39.313Z,13
2022-11-05T15:09:39.154Z,13
2022-11-05T15:14:39.156Z,13
2022-11-05T15:19:39.433Z,13
2022-11-05T15:24:39.181Z,13
2022-11-05T15:29:39.202Z,13
2022-11-05T15:34:48.756Z,14
2022-11-05T15:39:39.186Z,14
2022-11-05T15:44:39.254Z,14
2022-11-05T15:49:39.112Z,14
2022-11-05T15:54:39.213Z,14
2022-11-05T15:59:39.182Z,14
2022-11-05T16:04:39.231Z,15
2022-11-05T16:09:39.075Z,15
2022-11-05T16:14:39.305Z,15
2022-11-05T16:19:40.539Z,15
2022-11-05T16:24:39.097Z,15
2022-11-05T16:29:39.086Z,15
2022-11-05T16:34:39.303Z,15
2022-11-05T16:39:39.611Z,15
2022-11-05T16:44:39.292Z,15
2022-11-05T16:49:39.308Z,15
2022-11-05T16:54:39.030Z,15
2022-11-05T16:59:39.321Z,15
2022-11-05T17:04:39.068Z,16
2022-11-05T17:09:39.012Z,16
2022-11-05T17:14:39.109Z,16
2022-11-05T17:19:39.116Z,16
2022-11-05T17:24:38.913Z,16
2022-11-05T17:29:39.173Z,17
2022-11-05T17:34:39.170Z,17
2022-11-05T17:39:39.038Z,17
2022-11-05T17:44:39.169Z,18
2022-11-05T17:49:38.962Z,18
2022-11-05T17:54:38.847Z,18
2022-11-05T17:59:39.060Z,18
2022-11-05T18:04:39.115Z,18
2022-11-05T18:09:38.966Z,18
2022-11-05T18:14:38.880Z,18
2022-11-05T18:19:38.956Z,18
2022-11-05T18:24:38.993Z,18
2022-11-05T18:29:39.029Z,18
2022-11-05T18:34:39.028Z,19
2022-11-05T18:39:38.843Z,19
2022-11-05T18:44:39.373Z,18
2022-11-05T18:49:39.147Z,19
2022-11-05T18:54:38.983Z,19
2022-11-05T18:59:39.783Z,19
2022-11-05T19:04:38.887Z,19
2022-11-05T19:09:39.018Z,19
2022-11-05T19:14:38.839Z,19
2022-11-05T19:19:39.360Z,19
2022-11-05T19:24:39.044Z,19
2022-11-05T19:29:38.833Z,17
2022-11-05T19:34:39.147Z,17
2022-11-05T19:39:39.058Z,18
2022-11-05T19:44:38.932Z,18
2022-11-05T19:49:39.492Z,18
2022-11-05T19:54:38.777Z,18
2022-11-05T19:59:39.056Z,18
2022-11-05T20:04:39.011Z,18
2022-11-05T20:09:38.801Z,18
2022-11-05T20:14:39.088Z,18
2022-11-05T20:19:38.993Z,18
2022-11-05T20:24:38.717Z,18
2022-11-05T20:29:38.821Z,18
2022-11-05T20:34:39.007Z,18
2022-11-05T20:39:39.073Z,19
2022-11-05T20:44:38.812Z,19
2022-11-05T20:49:38.754Z,20
2022-11-05T20:54:38.901Z,19
2022-11-05T20:59:38.963Z,20
2022-11-05T21:04:38.870Z,19
2022-11-05T21:09:38.777Z,20
2022-11-05T21:14:38.825Z,20
2022-11-05T21:19:39.035Z,20
2022-11-05T21:24:38.980Z,20
2022-11-05T21:29:38.642Z,19
2022-11-05T21:34:38.797Z,20
2022-11-05T21:39:38.733Z,20
2022-11-05T21:44:39.056Z,20
2022-11-05T21:49:38.970Z,20
2022-11-05T21:54:38.880Z,20
2022-11-05T21:59:38.859Z,20
2022-11-05T22:04:38.712Z,20
2022-11-05T22:09:39.431Z,20
2022-11-05T22:14:38.921Z,20
2022-11-05T22:19:38.900Z,20
2022-11-05T22:24:38.694Z,20
2022-11-05T22:29:38.655Z,20
2022-11-05T22:34:38.654Z,19
2022-11-05T22:39:38.924Z,19
2022-11-05T22:44:38.865Z,19
2022-11-05T22:49:38.863Z,19
2022-11-05T22:54:39.407Z,18
2022-11-05T22:59:38.792Z,18
2022-11-05T23:04:38.490Z,18
2022-11-05T23:09:38.827Z,18
2022-11-05T23:14:38.814Z,19
2022-11-05T23:19:39.327Z,18
2022-11-05T23:24:38.826Z,18
2022-11-05T23:29:38.822Z,18
2022-11-05T23:34:38.748Z,18
2022-11-05T23:39:42.609Z,18
2022-11-05T23:44:38.532Z,17
2022-11-05T23:49:38.571Z,17
2022-11-05T23:54:38.801Z,17
2022-11-05T23:59:38.767Z,17
